sensor_id;sensor_type;location;lat;lon;timestamp;P1;durP1;ratioP1;P2;durP2;ratioP2
60436;SDS011;46289;51.992;4.498;2022-12-20T00:00:25;8.07;;;4.00;;
60436;SDS011;46289;51.992;4.498;2022-12-20T00:02:30;8.65;;;4.28;;
60436;SDS011;46289;51.992;4.498;2022-12-20T00:04:35;7.65;;;4.20;;
60436;SDS011;46289;51.992;4.498;2022-12-20T00:06:42;9.20;;;4.95;;
60436;SDS011;46289;51.992;4.498;2022-12-20T00:08:51;8.98;;;4.65;;
60436;SDS011;46289;51.992;4.498;2022-12-20T00:10:58;10.88;;;4.68;;
60436;SDS011;46289;51.992;4.498;2022-12-20T00:13:04;10.05;;;4.45;;
60436;SDS011;46289;51.992;4.498;2022-12-20T00:15:09;8.27;;;4.40;;
60436;SDS011;46289;51.992;4.498;2022-12-20T00:17:14;11.27;;;4.93;;
60436;SDS011;46289;51.992;4.498;2022-12-20T00:19:19;10.77;;;4.38;;
60436;SDS011;46289;51.992;4.498;2022-12-20T00:21:23;8.65;;;4.15;;
60436;SDS011;46289;51.992;4.498;2022-12-20T00:23:32;8.73;;;4.38;;
60436;SDS011;46289;51.992;4.498;2022-12-20T00:25:37;8.73;;;4.72;;
60436;SDS011;46289;51.992;4.498;2022-12-20T00:27:42;9.13;;;5.13;;
60436;SDS011;46289;51.992;4.498;2022-12-20T00:29:47;8.48;;;4.40;;
60436;SDS011;46289;51.992;4.498;2022-12-20T00:31:52;9.50;;;4.53;;
60436;SDS011;46289;51.992;4.498;2022-12-20T00:33:57;9.52;;;4.72;;
60436;SDS011;46289;51.992;4.498;2022-12-20T00:36:02;8.95;;;4.68;;
60436;SDS011;46289;51.992;4.498;2022-12-20T00:38:08;8.85;;;4.70;;
60436;SDS011;46289;51.992;4.498;2022-12-20T00:40:16;11.10;;;4.80;;
60436;SDS011;46289;51.992;4.498;2022-12-20T00:42:21;8.52;;;4.00;;
60436;SDS011;46289;51.992;4.498;2022-12-20T00:44:25;9.38;;;4.13;;
60436;SDS011;46289;51.992;4.498;2022-12-20T00:46:31;9.45;;;4.47;;
60436;SDS011;46289;51.992;4.498;2022-12-20T00:48:36;10.57;;;4.80;;
60436;SDS011;46289;51.992;4.498;2022-12-20T00:50:41;8.27;;;4.70;;
60436;SDS011;46289;51.992;4.498;2022-12-20T00:52:46;8.95;;;4.50;;
60436;SDS011;46289;51.992;4.498;2022-12-20T00:54:51;8.90;;;4.38;;
60436;SDS011;46289;51.992;4.498;2022-12-20T00:56:58;8.40;;;4.95;;
60436;SDS011;46289;51.992;4.498;2022-12-20T00:59:03;8.57;;;4.63;;
60436;SDS011;46289;51.992;4.498;2022-12-20T01:01:13;11.80;;;5.00;;
60436;SDS011;46289;51.992;4.498;2022-12-20T01:03:20;8.73;;;4.80;;
60436;SDS011;46289;51.992;4.498;2022-12-20T01:05:25;10.20;;;4.70;;
60436;SDS011;46289;51.992;4.498;2022-12-20T01:07:30;7.90;;;4.10;;
60436;SDS011;46289;51.992;4.498;2022-12-20T01:09:35;8.30;;;5.07;;
60436;SDS011;46289;51.992;4.498;2022-12-20T01:11:41;9.18;;;4.75;;
60436;SDS011;46289;51.992;4.498;2022-12-20T01:13:49;9.45;;;4.22;;
60436;SDS011;46289;51.992;4.498;2022-12-20T01:15:54;9.15;;;4.47;;
60436;SDS011;46289;51.992;4.498;2022-12-20T01:17:59;7.35;;;4.38;;
60436;SDS011;46289;51.992;4.498;2022-12-20T01:20:05;7.53;;;4.38;;
60436;SDS011;46289;51.992;4.498;2022-12-20T01:22:11;9.32;;;4.97;;
60436;SDS011;46289;51.992;4.498;2022-12-20T01:24:17;8.73;;;4.53;;
60436;SDS011;46289;51.992;4.498;2022-12-20T01:26:24;8.20;;;4.13;;
60436;SDS011;46289;51.992;4.498;2022-12-20T01:28:33;9.60;;;4.57;;
60436;SDS011;46289;51.992;4.498;2022-12-20T01:30:41;8.25;;;3.72;;
60436;SDS011;46289;51.992;4.498;2022-12-20T01:32:46;9.98;;;5.13;;
60436;SDS011;46289;51.992;4.498;2022-12-20T01:34:52;9.43;;;4.95;;
60436;SDS011;46289;51.992;4.498;2022-12-20T01:36:57;9.00;;;4.70;;
60436;SDS011;46289;51.992;4.498;2022-12-20T01:39:04;8.35;;;4.28;;
60436;SDS011;46289;51.992;4.498;2022-12-20T01:41:12;7.65;;;4.30;;
60436;SDS011;46289;51.992;4.498;2022-12-20T01:43:18;9.65;;;4.97;;
60436;SDS011;46289;51.992;4.498;2022-12-20T01:45:24;8.38;;;4.35;;
60436;SDS011;46289;51.992;4.498;2022-12-20T01:47:33;9.88;;;4.90;;
60436;SDS011;46289;51.992;4.498;2022-12-20T01:49:41;11.07;;;4.97;;
60436;SDS011;46289;51.992;4.498;2022-12-20T01:51:48;8.63;;;5.15;;
60436;SDS011;46289;51.992;4.498;2022-12-20T01:53:55;11.07;;;5.53;;
60436;SDS011;46289;51.992;4.498;2022-12-20T01:56:02;9.05;;;4.82;;
60436;SDS011;46289;51.992;4.498;2022-12-20T01:58:09;10.15;;;5.07;;
60436;SDS011;46289;51.992;4.498;2022-12-20T02:00:15;11.20;;;5.85;;
60436;SDS011;46289;51.992;4.498;2022-12-20T02:02:20;8.77;;;5.65;;
60436;SDS011;46289;51.992;4.498;2022-12-20T02:04:28;8.50;;;4.85;;
60436;SDS011;46289;51.992;4.498;2022-12-20T02:06:36;9.93;;;5.57;;
60436;SDS011;46289;51.992;4.498;2022-12-20T02:08:41;10.50;;;5.35;;
60436;SDS011;46289;51.992;4.498;2022-12-20T02:10:55;11.13;;;5.38;;
60436;SDS011;46289;51.992;4.498;2022-12-20T02:13:07;8.88;;;5.88;;
60436;SDS011;46289;51.992;4.498;2022-12-20T02:15:20;12.52;;;6.32;;
60436;SDS011;46289;51.992;4.498;2022-12-20T02:17:34;8.90;;;4.95;;
60436;SDS011;46289;51.992;4.498;2022-12-20T02:19:59;10.43;;;5.03;;
60436;SDS011;46289;51.992;4.498;2022-12-20T02:22:20;9.57;;;5.85;;
60436;SDS011;46289;51.992;4.498;2022-12-20T02:24:37;12.05;;;5.80;;
60436;SDS011;46289;51.992;4.498;2022-12-20T02:27:05;9.65;;;6.43;;
60436;SDS011;46289;51.992;4.498;2022-12-20T02:29:20;12.43;;;6.72;;
60436;SDS011;46289;51.992;4.498;2022-12-20T02:31:32;10.45;;;5.07;;
60436;SDS011;46289;51.992;4.498;2022-12-20T02:33:40;10.50;;;5.63;;
60436;SDS011;46289;51.992;4.498;2022-12-20T02:35:46;11.18;;;5.30;;
60436;SDS011;46289;51.992;4.498;2022-12-20T02:37:51;12.13;;;6.10;;
60436;SDS011;46289;51.992;4.498;2022-12-20T02:39:57;11.10;;;5.95;;
60436;SDS011;46289;51.992;4.498;2022-12-20T02:42:03;9.07;;;5.38;;
60436;SDS011;46289;51.992;4.498;2022-12-20T02:44:10;11.73;;;5.93;;
60436;SDS011;46289;51.992;4.498;2022-12-20T02:46:31;12.30;;;5.70;;
60436;SDS011;46289;51.992;4.498;2022-12-20T02:48:37;14.13;;;5.75;;
60436;SDS011;46289;51.992;4.498;2022-12-20T02:50:43;12.85;;;5.68;;
60436;SDS011;46289;51.992;4.498;2022-12-20T02:52:49;10.73;;;5.25;;
60436;SDS011;46289;51.992;4.498;2022-12-20T02:54:54;11.68;;;5.03;;
60436;SDS011;46289;51.992;4.498;2022-12-20T02:56:59;10.00;;;5.72;;
60436;SDS011;46289;51.992;4.498;2022-12-20T02:59:08;9.30;;;4.78;;
60436;SDS011;46289;51.992;4.498;2022-12-20T03:01:19;11.10;;;6.20;;
60436;SDS011;46289;51.992;4.498;2022-12-20T03:03:28;12.25;;;5.20;;
60436;SDS011;46289;51.992;4.498;2022-12-20T03:05:35;8.77;;;4.85;;
60436;SDS011;46289;51.992;4.498;2022-12-20T03:07:43;11.23;;;5.28;;
60436;SDS011;46289;51.992;4.498;2022-12-20T03:09:47;10.65;;;5.35;;
60436;SDS011;46289;51.992;4.498;2022-12-20T03:11:52;10.63;;;5.38;;
60436;SDS011;46289;51.992;4.498;2022-12-20T03:13:57;8.68;;;5.28;;
60436;SDS011;46289;51.992;4.498;2022-12-20T03:16:02;8.98;;;5.13;;
60436;SDS011;46289;51.992;4.498;2022-12-20T03:18:07;9.10;;;5.13;;
60436;SDS011;46289;51.992;4.498;2022-12-20T03:20:15;8.80;;;5.13;;
60436;SDS011;46289;51.992;4.498;2022-12-20T03:22:20;7.53;;;4.80;;
60436;SDS011;46289;51.992;4.498;2022-12-20T03:24:25;9.57;;;4.75;;
60436;SDS011;46289;51.992;4.498;2022-12-20T03:26:31;13.88;;;5.57;;
60436;SDS011;46289;51.992;4.498;2022-12-20T03:28:36;9.90;;;4.80;;
60436;SDS011;46289;51.992;4.498;2022-12-20T03:30:41;10.52;;;4.70;;
60436;SDS011;46289;51.992;4.498;2022-12-20T03:32:46;8.75;;;4.65;;
60436;SDS011;46289;51.992;4.498;2022-12-20T03:34:51;11.55;;;4.75;;
60436;SDS011;46289;51.992;4.498;2022-12-20T03:36:58;8.32;;;4.82;;
60436;SDS011;46289;51.992;4.498;2022-12-20T03:39:03;8.00;;;4.20;;
60436;SDS011;46289;51.992;4.498;2022-12-20T03:41:08;8.48;;;4.47;;
60436;SDS011;46289;51.992;4.498;2022-12-20T03:43:13;8.00;;;4.55;;
60436;SDS011;46289;51.992;4.498;2022-12-20T03:45:17;7.82;;;4.07;;
60436;SDS011;46289;51.992;4.498;2022-12-20T03:47:22;8.20;;;4.68;;
60436;SDS011;46289;51.992;4.498;2022-12-20T03:49:27;8.85;;;4.25;;
60436;SDS011;46289;51.992;4.498;2022-12-20T03:51:32;9.73;;;4.53;;
60436;SDS011;46289;51.992;4.498;2022-12-20T03:53:39;9.98;;;4.40;;
60436;SDS011;46289;51.992;4.498;2022-12-20T03:55:44;11.55;;;4.45;;
60436;SDS011;46289;51.992;4.498;2022-12-20T03:57:48;7.60;;;3.97;;
60436;SDS011;46289;51.992;4.498;2022-12-20T03:59:53;8.70;;;4.25;;
60436;SDS011;46289;51.992;4.498;2022-12-20T04:01:58;9.02;;;4.40;;
60436;SDS011;46289;51.992;4.498;2022-12-20T04:04:03;11.50;;;4.78;;
60436;SDS011;46289;51.992;4.498;2022-12-20T04:06:08;9.88;;;4.72;;
60436;SDS011;46289;51.992;4.498;2022-12-20T04:08:13;7.32;;;4.30;;
60436;SDS011;46289;51.992;4.498;2022-12-20T04:10:20;10.00;;;4.50;;
60436;SDS011;46289;51.992;4.498;2022-12-20T04:12:25;10.32;;;4.32;;
60436;SDS011;46289;51.992;4.498;2022-12-20T04:14:29;10.68;;;5.13;;
60436;SDS011;46289;51.992;4.498;2022-12-20T04:16:34;7.28;;;3.70;;
60436;SDS011;46289;51.992;4.498;2022-12-20T04:18:39;8.20;;;4.13;;
60436;SDS011;46289;51.992;4.498;2022-12-20T04:20:44;10.10;;;4.82;;
60436;SDS011;46289;51.992;4.498;2022-12-20T04:22:50;7.53;;;3.92;;
60436;SDS011;46289;51.992;4.498;2022-12-20T04:24:55;9.10;;;4.55;;
60436;SDS011;46289;51.992;4.498;2022-12-20T04:27:03;8.07;;;4.63;;
60436;SDS011;46289;51.992;4.498;2022-12-20T04:29:07;10.02;;;4.68;;
60436;SDS011;46289;51.992;4.498;2022-12-20T04:31:12;10.75;;;5.18;;
60436;SDS011;46289;51.992;4.498;2022-12-20T04:33:24;10.65;;;5.38;;
60436;SDS011;46289;51.992;4.498;2022-12-20T04:35:31;10.32;;;5.25;;
60436;SDS011;46289;51.992;4.498;2022-12-20T04:37:36;9.73;;;5.20;;
60436;SDS011;46289;51.992;4.498;2022-12-20T04:39:41;12.82;;;5.28;;
60436;SDS011;46289;51.992;4.498;2022-12-20T04:41:46;8.68;;;4.95;;
60436;SDS011;46289;51.992;4.498;2022-12-20T04:43:54;9.38;;;5.22;;
60436;SDS011;46289;51.992;4.498;2022-12-20T04:46:00;9.75;;;4.72;;
60436;SDS011;46289;51.992;4.498;2022-12-20T04:48:05;8.88;;;5.10;;
60436;SDS011;46289;51.992;4.498;2022-12-20T04:50:30;9.07;;;4.93;;
60436;SDS011;46289;51.992;4.498;2022-12-20T04:52:35;8.40;;;4.22;;
60436;SDS011;46289;51.992;4.498;2022-12-20T04:54:52;10.00;;;4.53;;
60436;SDS011;46289;51.992;4.498;2022-12-20T04:56:57;8.43;;;4.65;;
60436;SDS011;46289;51.992;4.498;2022-12-20T04:59:04;8.88;;;4.40;;
60436;SDS011;46289;51.992;4.498;2022-12-20T05:01:09;8.30;;;4.72;;
60436;SDS011;46289;51.992;4.498;2022-12-20T05:03:14;8.65;;;4.90;;
60436;SDS011;46289;51.992;4.498;2022-12-20T05:05:19;9.00;;;5.00;;
60436;SDS011;46289;51.992;4.498;2022-12-20T05:07:25;7.57;;;4.57;;
60436;SDS011;46289;51.992;4.498;2022-12-20T05:09:30;9.35;;;4.82;;
60436;SDS011;46289;51.992;4.498;2022-12-20T05:11:35;8.77;;;4.20;;
60436;SDS011;46289;51.992;4.498;2022-12-20T05:13:39;8.77;;;4.15;;
60436;SDS011;46289;51.992;4.498;2022-12-20T05:15:48;8.05;;;4.80;;
60436;SDS011;46289;51.992;4.498;2022-12-20T05:17:54;8.52;;;4.38;;
60436;SDS011;46289;51.992;4.498;2022-12-20T05:20:00;9.05;;;4.72;;
60436;SDS011;46289;51.992;4.498;2022-12-20T05:22:05;8.80;;;4.30;;
60436;SDS011;46289;51.992;4.498;2022-12-20T05:24:22;9.00;;;4.82;;
60436;SDS011;46289;51.992;4.498;2022-12-20T05:26:54;10.48;;;4.43;;
60436;SDS011;46289;51.992;4.498;2022-12-20T05:28:59;9.55;;;4.97;;
60436;SDS011;46289;51.992;4.498;2022-12-20T05:31:06;8.63;;;4.63;;
60436;SDS011;46289;51.992;4.498;2022-12-20T05:33:11;8.00;;;4.18;;
60436;SDS011;46289;51.992;4.498;2022-12-20T05:35:16;8.70;;;4.03;;
60436;SDS011;46289;51.992;4.498;2022-12-20T05:37:21;9.32;;;4.50;;
60436;SDS011;46289;51.992;4.498;2022-12-20T05:39:26;10.30;;;4.88;;
60436;SDS011;46289;51.992;4.498;2022-12-20T05:41:31;11.13;;;4.95;;
60436;SDS011;46289;51.992;4.498;2022-12-20T05:43:36;11.18;;;4.90;;
60436;SDS011;46289;51.992;4.498;2022-12-20T05:45:44;11.60;;;4.80;;
60436;SDS011;46289;51.992;4.498;2022-12-20T05:47:51;11.90;;;5.13;;
60436;SDS011;46289;51.992;4.498;2022-12-20T05:49:56;11.07;;;5.18;;
60436;SDS011;46289;51.992;4.498;2022-12-20T05:52:01;9.38;;;5.20;;
60436;SDS011;46289;51.992;4.498;2022-12-20T05:54:06;10.18;;;5.10;;
60436;SDS011;46289;51.992;4.498;2022-12-20T05:56:11;8.63;;;4.65;;
60436;SDS011;46289;51.992;4.498;2022-12-20T05:58:16;11.18;;;5.25;;
60436;SDS011;46289;51.992;4.498;2022-12-20T06:00:22;11.35;;;5.07;;
60436;SDS011;46289;51.992;4.498;2022-12-20T06:02:27;7.85;;;3.92;;
60436;SDS011;46289;51.992;4.498;2022-12-20T06:04:36;9.70;;;5.25;;
60436;SDS011;46289;51.992;4.498;2022-12-20T06:06:41;8.63;;;4.50;;
60436;SDS011;46289;51.992;4.498;2022-12-20T06:08:46;10.32;;;4.97;;
60436;SDS011;46289;51.992;4.498;2022-12-20T06:10:51;10.10;;;4.57;;
60436;SDS011;46289;51.992;4.498;2022-12-20T06:12:56;11.73;;;4.97;;
60436;SDS011;46289;51.992;4.498;2022-12-20T06:15:01;9.57;;;5.05;;
60436;SDS011;46289;51.992;4.498;2022-12-20T06:17:05;10.43;;;4.78;;
60436;SDS011;46289;51.992;4.498;2022-12-20T06:19:12;11.35;;;4.88;;
60436;SDS011;46289;51.992;4.498;2022-12-20T06:21:24;10.07;;;5.22;;
60436;SDS011;46289;51.992;4.498;2022-12-20T06:23:30;7.93;;;4.60;;
60436;SDS011;46289;51.992;4.498;2022-12-20T06:25:35;8.77;;;4.55;;
60436;SDS011;46289;51.992;4.498;2022-12-20T06:27:40;8.32;;;4.30;;
60436;SDS011;46289;51.992;4.498;2022-12-20T06:29:46;12.52;;;4.45;;
60436;SDS011;46289;51.992;4.498;2022-12-20T06:31:55;8.48;;;4.50;;
60436;SDS011;46289;51.992;4.498;2022-12-20T06:34:00;7.07;;;4.00;;
60436;SDS011;46289;51.992;4.498;2022-12-20T06:36:05;7.18;;;3.88;;
60436;SDS011;46289;51.992;4.498;2022-12-20T06:38:12;9.00;;;4.63;;
60436;SDS011;46289;51.992;4.498;2022-12-20T06:40:17;6.43;;;3.95;;
60436;SDS011;46289;51.992;4.498;2022-12-20T06:42:22;9.25;;;4.70;;
60436;SDS011;46289;51.992;4.498;2022-12-20T06:44:27;9.52;;;4.68;;
60436;SDS011;46289;51.992;4.498;2022-12-20T06:46:32;8.02;;;4.05;;
60436;SDS011;46289;51.992;4.498;2022-12-20T06:48:37;8.75;;;4.55;;
60436;SDS011;46289;51.992;4.498;2022-12-20T06:50:44;9.73;;;4.72;;
60436;SDS011;46289;51.992;4.498;2022-12-20T06:52:56;9.25;;;4.30;;
60436;SDS011;46289;51.992;4.498;2022-12-20T06:55:04;7.07;;;4.00;;
60436;SDS011;46289;51.992;4.498;2022-12-20T06:57:08;8.43;;;3.90;;
60436;SDS011;46289;51.992;4.498;2022-12-20T06:59:13;9.43;;;4.38;;
60436;SDS011;46289;51.992;4.498;2022-12-20T07:01:18;10.10;;;4.55;;
60436;SDS011;46289;51.992;4.498;2022-12-20T07:03:23;9.25;;;4.25;;
60436;SDS011;46289;51.992;4.498;2022-12-20T07:05:28;7.28;;;4.03;;
60436;SDS011;46289;51.992;4.498;2022-12-20T07:07:33;8.75;;;4.05;;
60436;SDS011;46289;51.992;4.498;2022-12-20T07:09:45;8.98;;;4.18;;
60436;SDS011;46289;51.992;4.498;2022-12-20T07:11:53;7.93;;;4.00;;
60436;SDS011;46289;51.992;4.498;2022-12-20T07:13:57;5.57;;;3.60;;
60436;SDS011;46289;51.992;4.498;2022-12-20T07:16:02;9.95;;;4.45;;
60436;SDS011;46289;51.992;4.498;2022-12-20T07:18:08;9.63;;;3.95;;
60436;SDS011;46289;51.992;4.498;2022-12-20T07:20:12;7.10;;;3.90;;
60436;SDS011;46289;51.992;4.498;2022-12-20T07:22:17;7.47;;;4.20;;
60436;SDS011;46289;51.992;4.498;2022-12-20T07:24:22;10.10;;;4.25;;
60436;SDS011;46289;51.992;4.498;2022-12-20T07:26:27;6.57;;;3.50;;
60436;SDS011;46289;51.992;4.498;2022-12-20T07:28:35;5.50;;;3.35;;
60436;SDS011;46289;51.992;4.498;2022-12-20T07:30:39;9.55;;;4.97;;
60436;SDS011;46289;51.992;4.498;2022-12-20T07:32:45;6.45;;;3.47;;
60436;SDS011;46289;51.992;4.498;2022-12-20T07:34:50;7.88;;;3.65;;
60436;SDS011;46289;51.992;4.498;2022-12-20T07:36:54;8.75;;;3.95;;
60436;SDS011;46289;51.992;4.498;2022-12-20T07:38:59;10.32;;;3.83;;
60436;SDS011;46289;51.992;4.498;2022-12-20T07:41:05;10.63;;;4.40;;
60436;SDS011;46289;51.992;4.498;2022-12-20T07:43:11;7.53;;;3.63;;
60436;SDS011;46289;51.992;4.498;2022-12-20T07:45:19;8.68;;;4.15;;
60436;SDS011;46289;51.992;4.498;2022-12-20T07:47:23;7.75;;;4.35;;
60436;SDS011;46289;51.992;4.498;2022-12-20T07:49:28;9.80;;;4.32;;
60436;SDS011;46289;51.992;4.498;2022-12-20T07:51:34;6.47;;;3.80;;
60436;SDS011;46289;51.992;4.498;2022-12-20T07:53:41;11.13;;;3.90;;
60436;SDS011;46289;51.992;4.498;2022-12-20T07:55:48;7.78;;;4.25;;
60436;SDS011;46289;51.992;4.498;2022-12-20T07:57:54;7.13;;;4.22;;
60436;SDS011;46289;51.992;4.498;2022-12-20T08:00:01;9.43;;;4.15;;
60436;SDS011;46289;51.992;4.498;2022-12-20T08:02:11;6.15;;;3.47;;
60436;SDS011;46289;51.992;4.498;2022-12-20T08:04:18;9.88;;;4.35;;
60436;SDS011;46289;51.992;4.498;2022-12-20T08:06:25;6.95;;;4.28;;
60436;SDS011;46289;51.992;4.498;2022-12-20T08:08:30;8.10;;;4.00;;
60436;SDS011;46289;51.992;4.498;2022-12-20T08:10:36;6.75;;;3.35;;
60436;SDS011;46289;51.992;4.498;2022-12-20T08:12:41;6.78;;;3.08;;
60436;SDS011;46289;51.992;4.498;2022-12-20T08:14:48;7.57;;;3.58;;
60436;SDS011;46289;51.992;4.498;2022-12-20T08:16:56;8.60;;;4.40;;
60436;SDS011;46289;51.992;4.498;2022-12-20T08:19:04;9.65;;;3.95;;
60436;SDS011;46289;51.992;4.498;2022-12-20T08:21:09;7.88;;;3.72;;
60436;SDS011;46289;51.992;4.498;2022-12-20T08:23:15;8.93;;;3.63;;
60436;SDS011;46289;51.992;4.498;2022-12-20T08:25:20;7.75;;;3.58;;
60436;SDS011;46289;51.992;4.498;2022-12-20T08:27:25;7.32;;;4.10;;
60436;SDS011;46289;51.992;4.498;2022-12-20T08:29:30;6.82;;;3.63;;
60436;SDS011;46289;51.992;4.498;2022-12-20T08:31:36;9.13;;;3.80;;
60436;SDS011;46289;51.992;4.498;2022-12-20T08:33:52;11.80;;;3.85;;
60436;SDS011;46289;51.992;4.498;2022-12-20T08:36:00;6.05;;;3.17;;
60436;SDS011;46289;51.992;4.498;2022-12-20T08:38:07;9.60;;;4.13;;
60436;SDS011;46289;51.992;4.498;2022-12-20T08:40:13;7.88;;;4.28;;
60436;SDS011;46289;51.992;4.498;2022-12-20T08:42:18;7.80;;;3.88;;
60436;SDS011;46289;51.992;4.498;2022-12-20T08:44:23;9.77;;;4.05;;
60436;SDS011;46289;51.992;4.498;2022-12-20T08:46:28;7.43;;;3.53;;
60436;SDS011;46289;51.992;4.498;2022-12-20T08:48:33;6.95;;;3.45;;
60436;SDS011;46289;51.992;4.498;2022-12-20T08:50:38;11.20;;;3.97;;
60436;SDS011;46289;51.992;4.498;2022-12-20T08:52:46;7.97;;;4.00;;
60436;SDS011;46289;51.992;4.498;2022-12-20T08:54:51;7.03;;;3.80;;
60436;SDS011;46289;51.992;4.498;2022-12-20T08:56:56;7.68;;;3.60;;
60436;SDS011;46289;51.992;4.498;2022-12-20T08:59:00;7.50;;;3.35;;
60436;SDS011;46289;51.992;4.498;2022-12-20T09:01:06;5.60;;;3.45;;
60436;SDS011;46289;51.992;4.498;2022-12-20T09:03:13;7.38;;;3.83;;
60436;SDS011;46289;51.992;4.498;2022-12-20T09:05:17;10.93;;;4.35;;
60436;SDS011;46289;51.992;4.498;2022-12-20T09:07:22;11.00;;;5.13;;
60436;SDS011;46289;51.992;4.498;2022-12-20T09:09:30;9.57;;;4.10;;
60436;SDS011;46289;51.992;4.498;2022-12-20T09:11:35;10.52;;;4.50;;
60436;SDS011;46289;51.992;4.498;2022-12-20T09:13:40;8.25;;;4.03;;
60436;SDS011;46289;51.992;4.498;2022-12-20T09:15:45;8.52;;;4.10;;
60436;SDS011;46289;51.992;4.498;2022-12-20T09:17:50;7.25;;;3.92;;
60436;SDS011;46289;51.992;4.498;2022-12-20T09:19:55;8.18;;;4.45;;
60436;SDS011;46289;51.992;4.498;2022-12-20T09:22:00;9.13;;;4.22;;
60436;SDS011;46289;51.992;4.498;2022-12-20T09:24:05;8.55;;;4.25;;
60436;SDS011;46289;51.992;4.498;2022-12-20T09:26:14;7.75;;;3.75;;
60436;SDS011;46289;51.992;4.498;2022-12-20T09:28:20;13.57;;;4.75;;
60436;SDS011;46289;51.992;4.498;2022-12-20T09:30:25;11.40;;;4.45;;
60436;SDS011;46289;51.992;4.498;2022-12-20T09:32:30;9.18;;;4.18;;
60436;SDS011;46289;51.992;4.498;2022-12-20T09:34:35;10.73;;;4.07;;
60436;SDS011;46289;51.992;4.498;2022-12-20T09:36:41;7.65;;;4.90;;
60436;SDS011;46289;51.992;4.498;2022-12-20T09:38:46;8.40;;;4.13;;
60436;SDS011;46289;51.992;4.498;2022-12-20T09:40:52;9.77;;;4.18;;
60436;SDS011;46289;51.992;4.498;2022-12-20T09:43:01;7.53;;;4.40;;
60436;SDS011;46289;51.992;4.498;2022-12-20T09:45:07;10.40;;;4.22;;
60436;SDS011;46289;51.992;4.498;2022-12-20T09:47:13;7.40;;;3.83;;
60436;SDS011;46289;51.992;4.498;2022-12-20T09:49:19;8.63;;;4.13;;
60436;SDS011;46289;51.992;4.498;2022-12-20T09:51:32;7.90;;;4.03;;
60436;SDS011;46289;51.992;4.498;2022-12-20T09:53:47;10.68;;;4.40;;
60436;SDS011;46289;51.992;4.498;2022-12-20T09:55:58;10.95;;;4.70;;
60436;SDS011;46289;51.992;4.498;2022-12-20T09:58:17;11.60;;;6.20;;
60436;SDS011;46289;51.992;4.498;2022-12-20T10:00:33;10.30;;;3.97;;
60436;SDS011;46289;51.992;4.498;2022-12-20T10:02:39;7.35;;;3.85;;
60436;SDS011;46289;51.992;4.498;2022-12-20T10:05:04;9.45;;;4.47;;
60436;SDS011;46289;51.992;4.498;2022-12-20T10:07:17;11.90;;;4.57;;
60436;SDS011;46289;51.992;4.498;2022-12-20T10:09:39;8.82;;;4.05;;
60436;SDS011;46289;51.992;4.498;2022-12-20T10:11:54;8.43;;;4.40;;
60436;SDS011;46289;51.992;4.498;2022-12-20T10:14:07;8.32;;;4.10;;
60436;SDS011;46289;51.992;4.498;2022-12-20T10:16:25;10.95;;;5.45;;
60436;SDS011;46289;51.992;4.498;2022-12-20T10:18:41;10.48;;;4.45;;
60436;SDS011;46289;51.992;4.498;2022-12-20T10:20:54;7.65;;;4.38;;
60436;SDS011;46289;51.992;4.498;2022-12-20T10:23:01;8.45;;;4.22;;
60436;SDS011;46289;51.992;4.498;2022-12-20T10:25:14;7.78;;;3.90;;
60436;SDS011;46289;51.992;4.498;2022-12-20T10:27:20;8.45;;;4.35;;
60436;SDS011;46289;51.992;4.498;2022-12-20T10:29:28;6.85;;;4.13;;
60436;SDS011;46289;51.992;4.498;2022-12-20T10:31:33;10.88;;;5.05;;
60436;SDS011;46289;51.992;4.498;2022-12-20T10:33:38;9.90;;;4.97;;
60436;SDS011;46289;51.992;4.498;2022-12-20T10:35:45;9.57;;;4.90;;
60436;SDS011;46289;51.992;4.498;2022-12-20T10:37:58;9.27;;;4.53;;
60436;SDS011;46289;51.992;4.498;2022-12-20T10:40:11;10.18;;;4.70;;
60436;SDS011;46289;51.992;4.498;2022-12-20T10:42:49;9.50;;;4.53;;
60436;SDS011;46289;51.992;4.498;2022-12-20T10:44:57;10.80;;;5.07;;
60436;SDS011;46289;51.992;4.498;2022-12-20T10:47:01;9.23;;;4.72;;
60436;SDS011;46289;51.992;4.498;2022-12-20T10:51:32;9.45;;;4.82;;
60436;SDS011;46289;51.992;4.498;2022-12-20T10:53:37;12.45;;;4.63;;
60436;SDS011;46289;51.992;4.498;2022-12-20T10:55:55;12.75;;;5.18;;
60436;SDS011;46289;51.992;4.498;2022-12-20T10:58:18;8.73;;;4.60;;
60436;SDS011;46289;51.992;4.498;2022-12-20T11:00:29;8.52;;;4.70;;
60436;SDS011;46289;51.992;4.498;2022-12-20T11:02:36;11.25;;;5.50;;
60436;SDS011;46289;51.992;4.498;2022-12-20T11:04:44;9.98;;;5.28;;
60436;SDS011;46289;51.992;4.498;2022-12-20T11:07:03;7.57;;;4.15;;
60436;SDS011;46289;51.992;4.498;2022-12-20T11:09:28;10.15;;;4.70;;
60436;SDS011;46289;51.992;4.498;2022-12-20T11:11:34;9.82;;;5.78;;
60436;SDS011;46289;51.992;4.498;2022-12-20T11:13:38;7.88;;;4.93;;
60436;SDS011;46289;51.992;4.498;2022-12-20T11:15:48;11.00;;;5.25;;
60436;SDS011;46289;51.992;4.498;2022-12-20T11:17:57;11.77;;;5.40;;
60436;SDS011;46289;51.992;4.498;2022-12-20T11:20:10;9.93;;;5.68;;
60436;SDS011;46289;51.992;4.498;2022-12-20T11:22:27;9.25;;;5.28;;
60436;SDS011;46289;51.992;4.498;2022-12-20T11:24:39;10.02;;;5.43;;
60436;SDS011;46289;51.992;4.498;2022-12-20T11:26:59;12.25;;;5.22;;
60436;SDS011;46289;51.992;4.498;2022-12-20T11:29:21;13.55;;;5.70;;
60436;SDS011;46289;51.992;4.498;2022-12-20T11:31:39;9.88;;;5.07;;
60436;SDS011;46289;51.992;4.498;2022-12-20T11:33:55;12.45;;;5.90;;
60436;SDS011;46289;51.992;4.498;2022-12-20T11:36:09;11.13;;;5.65;;
60436;SDS011;46289;51.992;4.498;2022-12-20T11:38:21;9.77;;;5.68;;
60436;SDS011;46289;51.992;4.498;2022-12-20T11:40:36;12.88;;;6.60;;
60436;SDS011;46289;51.992;4.498;2022-12-20T11:42:49;10.27;;;5.88;;
60436;SDS011;46289;51.992;4.498;2022-12-20T11:45:00;10.43;;;5.43;;
60436;SDS011;46289;51.992;4.498;2022-12-20T11:47:20;11.23;;;5.17;;
60436;SDS011;46289;51.992;4.498;2022-12-20T11:52:09;12.43;;;6.32;;
60436;SDS011;46289;51.992;4.498;2022-12-20T11:54:18;11.63;;;6.00;;
60436;SDS011;46289;51.992;4.498;2022-12-20T11:56:26;11.40;;;6.03;;
60436;SDS011;46289;51.992;4.498;2022-12-20T11:58:48;11.43;;;6.15;;
60436;SDS011;46289;51.992;4.498;2022-12-20T12:00:55;9.98;;;5.82;;
60436;SDS011;46289;51.992;4.498;2022-12-20T12:03:08;10.55;;;6.05;;
60436;SDS011;46289;51.992;4.498;2022-12-20T12:05:19;11.80;;;5.88;;
60436;SDS011;46289;51.992;4.498;2022-12-20T12:07:28;12.35;;;6.50;;
60436;SDS011;46289;51.992;4.498;2022-12-20T12:09:35;12.48;;;6.35;;
60436;SDS011;46289;51.992;4.498;2022-12-20T12:11:44;10.70;;;6.70;;
60436;SDS011;46289;51.992;4.498;2022-12-20T12:14:13;11.02;;;6.15;;
60436;SDS011;46289;51.992;4.498;2022-12-20T12:16:21;11.57;;;6.50;;
60436;SDS011;46289;51.992;4.498;2022-12-20T12:18:32;12.18;;;6.78;;
60436;SDS011;46289;51.992;4.498;2022-12-20T12:20:39;12.20;;;7.18;;
60436;SDS011;46289;51.992;4.498;2022-12-20T12:22:52;11.23;;;7.00;;
60436;SDS011;46289;51.992;4.498;2022-12-20T12:25:00;13.93;;;7.60;;
60436;SDS011;46289;51.992;4.498;2022-12-20T12:27:07;15.68;;;7.65;;
60436;SDS011;46289;51.992;4.498;2022-12-20T12:29:18;14.90;;;7.70;;
60436;SDS011;46289;51.992;4.498;2022-12-20T12:31:26;13.63;;;7.72;;
60436;SDS011;46289;51.992;4.498;2022-12-20T12:33:36;14.48;;;7.50;;
60436;SDS011;46289;51.992;4.498;2022-12-20T12:35:52;14.50;;;7.30;;
60436;SDS011;46289;51.992;4.498;2022-12-20T12:38:14;13.73;;;8.02;;
60436;SDS011;46289;51.992;4.498;2022-12-20T12:42:57;10.85;;;7.47;;
60436;SDS011;46289;51.992;4.498;2022-12-20T12:45:30;13.25;;;6.70;;
60436;SDS011;46289;51.992;4.498;2022-12-20T12:47:41;12.57;;;7.72;;
60436;SDS011;46289;51.992;4.498;2022-12-20T12:49:52;12.30;;;7.22;;
60436;SDS011;46289;51.992;4.498;2022-12-20T12:51:58;10.80;;;7.70;;
60436;SDS011;46289;51.992;4.498;2022-12-20T12:54:13;13.73;;;7.88;;